Time;durP1;ratioP1;P1;durP2;ratioP2;P2;SDS_P1;SDS_P2;PMS_P1;PMS_P2;Temp;Humidity;BMP_temperature;BMP_pressure;BME280_temperature;BME280_humidity;BME280_pressure;Samples;Min_cycle;Max_cycle;Signal;HPM_P1;HPM_P2
2022/08/15 00:01:38;;;;;;;;;;;;;;;21.80;57.58;98677.19;5033777;28;19913;-75
2022/08/15 00:04:04;;;;;;;;;;;;;;;21.80;56.75;98666.44;5033724;28;19939;-75
2022/08/15 00:06:41;;;;;;;;;;;;;;;21.76;57.26;98668.06;5033658;28;19909;-76
2022/08/15 00:09:19;;;;;;;;;;;;;;;21.71;56.58;98663.50;5032096;28;19916;-75
2022/08/15 00:11:47;;;;;;;;;;;;;;;21.67;57.07;98667.00;5033491;28;19966;-75
2022/08/15 00:14:18;;;;;;;;;;;;;;;21.67;56.93;98670.50;5033492;28;19979;-75
2022/08/15 00:16:44;;;;;;;;;;;;;;;21.67;56.75;98669.69;5033399;28;19917;-76
2022/08/15 00:19:11;;;;;;;;;;;;;;;21.64;57.05;98672.94;5034013;28;20298;-75
2022/08/15 00:21:39;;;;;;;;;;;;;;;21.63;57.95;98679.38;5065356;28;20365;-75
2022/08/15 00:24:04;;;;;;;;;;;;;;;21.64;56.37;98679.09;5065103;28;19909;-75
2022/08/15 00:26:30;;;;;;;;;;;;;;;21.59;56.36;98683.69;5032891;28;19916;-75
2022/08/15 00:28:55;;;;;;;;;;;;;;;21.64;56.97;98687.16;5032359;28;20025;-75
2022/08/15 00:31:21;;;;;;;;;;;;;;;21.69;55.99;98684.47;5033175;28;19966;-75
2022/08/15 00:33:46;;;;;;;;;;;;;;;21.64;57.61;98679.09;5033079;28;19967;-75
2022/08/15 00:36:14;;;;;;;;;;;;;;;21.65;57.33;98680.72;5033055;28;20328;-75
2022/08/15 00:38:39;;;;;;;;;;;;;;;21.66;57.25;98674.28;5033108;28;19916;-75
2022/08/15 00:43:56;;;;;;;;;;;;;;;21.71;56.55;98681.50;5033283;28;19971;-75
2022/08/15 00:46:21;;;;;;;;;;;;;;;21.71;57.09;98681.50;5032971;28;19967;-75
2022/08/15 00:48:47;;;;;;;;;;;;;;;21.66;56.01;98678.84;5031578;28;19909;-75
2022/08/15 00:51:12;;;;;;;;;;;;;;;21.68;56.29;98679.38;5032773;28;19963;-75
2022/08/15 00:53:38;;;;;;;;;;;;;;;21.73;56.65;98679.38;5032827;28;19901;-75
2022/08/15 00:56:05;;;;;;;;;;;;;;;21.80;56.00;98672.63;5032659;28;19964;-75
2022/08/15 00:58:31;;;;;;;;;;;;;;;21.88;55.86;98672.06;5032670;28;19901;-75
2022/08/15 01:00:56;;;;;;;;;;;;;;;21.84;56.02;98676.38;5032516;28;19913;-75
2022/08/15 01:03:27;;;;;;;;;;;;;;;21.76;56.43;98685.00;5032623;28;19962;-75
2022/08/15 01:05:59;;;;;;;;;;;;;;;21.82;56.25;98683.09;5064616;28;19915;-75
2022/08/15 01:08:26;;;;;;;;;;;;;;;21.83;57.11;98682.03;5032516;28;19913;-75
2022/08/15 01:10:52;;;;;;;;;;;;;;;21.84;57.28;98675.56;5064521;28;19959;-75
2022/08/15 01:13:17;;;;;;;;;;;;;;;21.82;56.93;98670.47;5032346;28;19963;-75
2022/08/15 01:15:42;;;;;;;;;;;;;;;21.83;56.22;98676.66;5032423;28;19916;-76
2022/08/15 01:18:08;;;;;;;;;;;;;;;21.83;57.29;98682.84;5064148;28;20055;-75
2022/08/15 01:20:34;;;;;;;;;;;;;;;21.90;57.16;98690.63;5032576;28;19916;-76
2022/08/15 01:23:09;;;;;;;;;;;;;;;21.83;56.18;98684.72;5032204;28;20293;-75
2022/08/15 01:25:38;;;;;;;;;;;;;;;21.81;56.81;98679.63;5032162;28;19912;-75
2022/08/15 01:28:08;;;;;;;;;;;;;;;21.82;57.42;98683.91;5032240;28;19916;-75
2022/08/15 01:30:39;;;;;;;;;;;;;;;21.83;57.11;98692.78;5032230;28;19908;-75
2022/08/15 01:33:05;;;;;;;;;;;;;;;21.76;58.22;98705.69;5032276;28;19909;-75
2022/08/15 01:35:31;;;;;;;;;;;;;;;21.72;58.58;98710.00;5032134;28;19987;-75
2022/08/15 01:37:57;;;;;;;;;;;;;;;21.72;57.86;98710.00;5031774;28;20416;-75
2022/08/15 01:40:22;;;;;;;;;;;;;;;21.70;57.08;98702.22;5031782;28;20455;-75
2022/08/15 01:42:48;;;;;;;;;;;;;;;21.71;57.15;98709.19;5031681;28;19913;-76
2022/08/15 01:45:15;;;;;;;;;;;;;;;21.63;57.49;98706.25;5031814;28;20930;-75
2022/08/15 01:47:46;;;;;;;;;;;;;;;21.48;56.25;98713.22;5031986;28;20305;-76
2022/08/15 01:50:18;;;;;;;;;;;;;;;21.37;57.57;98708.09;5031878;28;20405;-75
2022/08/15 01:52:43;;;;;;;;;;;;;;;21.38;56.38;98704.34;5063865;28;20004;-75
2022/08/15 01:55:10;;;;;;;;;;;;;;;21.40;56.56;98702.19;5031809;28;19949;-75
2022/08/15 01:57:35;;;;;;;;;;;;;;;21.40;56.79;98704.88;5031743;28;20376;-76
2022/08/15 02:00:00;;;;;;;;;;;;;;;21.39;56.33;98698.72;5031879;28;19909;-76
2022/08/15 02:02:26;;;;;;;;;;;;;;;21.39;56.06;98700.59;5031678;28;20404;-76
2022/08/15 02:04:51;;;;;;;;;;;;;;;21.33;57.07;98701.66;5031811;28;19916;-76
2022/08/15 02:07:19;;;;;;;;;;;;;;;21.30;56.50;98694.16;5063624;28;19909;-75
2022/08/15 02:09:48;;;;;;;;;;;;;;;21.25;55.78;98697.63;5030472;28;19905;-75
2022/08/15 02:12:14;;;;;;;;;;;;;;;21.19;56.39;98699.47;5031551;28;19916;-75
2022/08/15 02:14:41;;;;;;;;;;;;;;;21.14;56.88;98698.66;5031787;28;20402;-75
2022/08/15 02:17:08;;;;;;;;;;;;;;;21.10;56.00;98706.44;5031539;28;20409;-75
2022/08/15 02:19:34;;;;;;;;;;;;;;;21.08;56.21;98711.28;5063775;28;20333;-75
2022/08/15 02:21:59;;;;;;;;;;;;;;;21.06;56.27;98715.31;5031385;28;19967;-76
2022/08/15 02:24:24;;;;;;;;;;;;;;;21.06;56.90;98718.00;5031509;28;19916;-76
2022/08/15 02:26:52;;;;;;;;;;;;;;;21.09;56.29;98720.94;5031833;28;19909;-75
2022/08/15 02:29:18;;;;;;;;;;;;;;;21.05;55.71;98724.44;5031591;28;20371;-75
2022/08/15 02:31:43;;;;;;;;;;;;;;;20.99;56.03;98728.19;5031416;28;19923;-75
2022/08/15 02:34:10;;;;;;;;;;;;;;;20.92;56.84;98726.56;5031282;28;19902;-76
2022/08/15 02:36:36;;;;;;;;;;;;;;;20.85;56.53;98723.31;5063354;28;19905;-76
2022/08/15 02:39:03;;;;;;;;;;;;;;;20.80;56.72;98725.16;5063479;28;19916;-76
2022/08/15 02:41:31;;;;;;;;;;;;;;;20.85;56.96;98731.38;5063010;28;19913;-75
2022/08/15 02:43:57;;;;;;;;;;;;;;;20.82;57.58;98739.13;5031250;28;19952;-76
2022/08/15 02:46:23;;;;;;;;;;;;;;;20.86;55.94;98741.03;5031221;28;20421;-75
2022/08/15 02:48:48;;;;;;;;;;;;;;;20.77;56.64;98736.41;5031340;28;19913;-75
2022/08/15 02:51:15;;;;;;;;;;;;;;;20.83;56.48;98746.91;5033068;28;19955;-75
2022/08/15 02:53:45;;;;;;;;;;;;;;;20.87;56.67;98748.00;5034866;28;19912;-75
2022/08/15 02:56:10;;;;;;;;;;;;;;;20.87;57.51;98752.56;5035036;28;19945;-75
2022/08/15 02:58:35;;;;;;;;;;;;;;;20.88;56.42;98743.44;5035010;28;20398;-75
2022/08/15 03:01:03;;;;;;;;;;;;;;;20.88;56.72;98756.88;5067374;28;19920;-76
2022/08/15 03:03:29;;;;;;;;;;;;;;;20.78;57.73;98744.19;5034899;28;19908;-75
2022/08/15 03:05:54;;;;;;;;;;;;;;;20.79;56.20;98736.94;5034731;28;19909;-75
2022/08/15 03:08:20;;;;;;;;;;;;;;;20.83;57.10;98740.75;5034573;28;19909;-76
2022/08/15 03:10:46;;;;;;;;;;;;;;;20.87;56.75;98739.16;5034753;28;20307;-75
2022/08/15 03:13:13;;;;;;;;;;;;;;;20.92;57.53;98739.97;5034667;28;20375;-76
2022/08/15 03:15:42;;;;;;;;;;;;;;;20.98;56.74;98737.28;5034576;28;20386;-75
2022/08/15 03:18:07;;;;;;;;;;;;;;;20.94;57.21;98737.03;5066615;28;19924;-75
2022/08/15 03:20:32;;;;;;;;;;;;;;;20.97;58.04;98728.44;5034283;28;20337;-75
2022/08/15 03:22:58;;;;;;;;;;;;;;;20.98;57.63;98726.56;5034369;28;19909;-75
2022/08/15 03:25:25;;;;;;;;;;;;;;;20.97;60.01;98725.75;5034295;28;20366;-75
2022/08/15 03:27:51;;;;;;;;;;;;;;;20.99;59.73;98726.28;5066367;28;19909;-75
2022/08/15 03:30:17;;;;;;;;;;;;;;;21.02;59.06;98724.97;5034219;28;20378;-75
2022/08/15 03:32:52;;;;;;;;;;;;;;;21.05;60.24;98725.22;5034367;28;19908;-75
2022/08/15 03:35:19;;;;;;;;;;;;;;;21.08;58.52;98721.22;5032829;28;19915;-75
2022/08/15 03:37:44;;;;;;;;;;;;;;;21.12;57.34;98727.66;5034242;28;19964;-75
2022/08/15 03:40:11;;;;;;;;;;;;;;;21.13;59.39;98727.41;5034182;28;20006;-75
2022/08/15 03:42:36;;;;;;;;;;;;;;;21.06;58.47;98736.78;5033922;28;19983;-75
2022/08/15 03:45:03;;;;;;;;;;;;;;;21.02;58.33;98736.50;5032665;28;20330;-75
2022/08/15 03:47:29;;;;;;;;;;;;;;;21.02;59.27;98736.50;5065817;28;19909;-75
2022/08/15 03:49:55;;;;;;;;;;;;;;;21.03;59.61;98737.31;5034031;28;20324;-75
2022/08/15 03:52:20;;;;;;;;;;;;;;;21.08;59.04;98738.13;5033170;28;19909;-75
2022/08/15 03:54:46;;;;;;;;;;;;;;;21.13;58.76;98740.81;5033990;28;19916;-75
2022/08/15 03:57:12;;;;;;;;;;;;;;;21.13;58.91;98740.00;5032668;28;19909;-75
2022/08/15 03:59:37;;;;;;;;;;;;;;;21.13;58.79;98735.44;5032600;28;19909;-75
2022/08/15 04:02:05;;;;;;;;;;;;;;;21.14;59.20;98741.63;5033496;28;19966;-75
2022/08/15 04:04:31;;;;;;;;;;;;;;;21.10;58.95;98737.84;5033481;28;19933;-75
2022/08/15 04:06:56;;;;;;;;;;;;;;;21.08;58.16;98737.31;5033444;28;20374;-75
2022/08/15 04:09:21;;;;;;;;;;;;;;;21.06;60.00;98734.91;5033413;28;19913;-75
2022/08/15 04:11:48;;;;;;;;;;;;;;;20.99;59.52;98722.81;5033559;28;20381;-75
2022/08/15 04:14:13;;;;;;;;;;;;;;;21.01;58.25;98721.47;5033504;28;20341;-75
2022/08/15 04:16:39;;;;;;;;;;;;;;;21.05;58.33;98721.75;5033312;28;19932;-75
2022/08/15 04:19:04;;;;;;;;;;;;;;;21.13;58.27;98731.97;5033514;28;19955;-75
2022/08/15 04:21:29;;;;;;;;;;;;;;;21.15;58.88;98727.13;5033281;28;19928;-75
2022/08/15 04:23:55;;;;;;;;;;;;;;;21.22;57.83;98724.97;5033274;28;19995;-75
2022/08/15 04:26:20;;;;;;;;;;;;;;;21.28;58.58;98721.25;5033274;28;20286;-75
2022/08/15 04:28:45;;;;;;;;;;;;;;;21.32;58.28;98726.91;5065274;28;19909;-75
2022/08/15 04:31:16;;;;;;;;;;;;;;;21.33;56.90;98733.88;5033229;28;19916;-75
2022/08/15 04:33:41;;;;;;;;;;;;;;;21.24;58.13;98725.56;5033284;28;19909;-75
2022/08/15 04:36:09;;;;;;;;;;;;;;;21.13;58.51;98729.28;5033199;28;20310;-75
2022/08/15 04:38:35;;;;;;;;;;;;;;;21.19;58.36;98720.97;5031648;28;19909;-76
2022/08/15 04:41:01;;;;;;;;;;;;;;;21.24;59.33;98720.19;5033070;28;19992;-75
2022/08/15 04:43:27;;;;;;;;;;;;;;;21.17;59.55;98722.28;5033075;28;19956;-75
2022/08/15 04:45:52;;;;;;;;;;;;;;;21.13;58.54;98722.03;5032995;28;19967;-76
2022/08/15 04:48:18;;;;;;;;;;;;;;;21.12;58.88;98730.34;5032846;28;20329;-75
2022/08/15 04:50:44;;;;;;;;;;;;;;;21.14;59.31;98728.19;5032629;28;19963;-75
2022/08/15 04:53:11;;;;;;;;;;;;;;;21.19;57.52;98723.66;5032590;28;19959;-75
2022/08/15 04:55:41;;;;;;;;;;;;;;;21.17;59.01;98733.84;5064462;28;20366;-75
2022/08/15 04:58:07;;;;;;;;;;;;;;;21.17;57.26;98727.66;5032632;28;19932;-75
2022/08/15 05:00:32;;;;;;;;;;;;;;;21.09;58.94;98729.00;5032461;28;20374;-75
2022/08/15 05:03:00;;;;;;;;;;;;;;;21.16;58.63;98718.81;5032549;28;19913;-76
2022/08/15 05:05:27;;;;;;;;;;;;;;;21.18;59.42;98722.03;5032717;28;19996;-75
2022/08/15 05:07:52;;;;;;;;;;;;;;;21.21;58.83;98718.81;5032526;28;19915;-76
2022/08/15 05:10:18;;;;;;;;;;;;;;;21.33;59.23;98712.41;5032325;28;20344;-75
2022/08/15 05:12:43;;;;;;;;;;;;;;;21.35;58.32;98718.31;5032118;28;19916;-75
2022/08/15 05:15:13;;;;;;;;;;;;;;;21.32;59.31;98724.22;5032240;28;19962;-75
2022/08/15 05:17:38;;;;;;;;;;;;;;;21.24;59.48;98730.94;5032273;28;19917;-75
2022/08/15 05:20:05;;;;;;;;;;;;;;;21.23;58.63;98732.81;5032248;28;19909;-75
2022/08/15 05:22:31;;;;;;;;;;;;;;;21.28;59.05;98734.69;5032157;28;19920;-75
2022/08/15 05:24:57;;;;;;;;;;;;;;;21.37;58.64;98743.03;5055201;28;19920;-75
2022/08/15 05:27:22;;;;;;;;;;;;;;;21.40;58.50;98735.22;5038259;28;19916;-75
2022/08/15 05:29:47;;;;;;;;;;;;;;;21.43;58.98;98734.69;5050740;28;19909;-75
2022/08/15 05:32:13;;;;;;;;;;;;;;;21.51;57.58;98739.53;5048475;28;19999;-75
2022/08/15 05:34:38;;;;;;;;;;;;;;;21.60;58.04;98736.34;5046128;28;19974;-75
2022/08/15 05:37:04;;;;;;;;;;;;;;;21.68;57.18;98741.16;5029873;28;19913;-75
2022/08/15 05:39:31;;;;;;;;;;;;;;;21.72;58.11;98726.91;5030599;28;19909;-75
2022/08/15 05:42:12;;;;;;;;;;;;;;;21.77;57.93;98742.22;5032868;28;20019;-75
2022/08/15 05:44:50;;;;;;;;;;;;;;;21.83;57.36;98746.53;5030458;28;19966;-75
2022/08/15 05:47:24;;;;;;;;;;;;;;;21.93;57.58;98748.41;5031721;28;20317;-75
2022/08/15 05:49:52;;;;;;;;;;;;;;;22.00;57.44;98751.59;5022414;28;19913;-75
2022/08/15 05:52:26;;;;;;;;;;;;;;;22.02;57.87;98755.63;5027073;28;19913;-75
2022/08/15 05:55:06;;;;;;;;;;;;;;;22.13;56.45;98756.44;5035240;28;20417;-75
2022/08/15 05:57:40;;;;;;;;;;;;;;;22.28;56.27;98763.66;5012237;28;19910;-75
2022/08/15 06:00:08;;;;;;;;;;;;;;;22.42;56.10;98756.66;5019539;28;20008;-75
2022/08/15 06:02:39;;;;;;;;;;;;;;;22.52;55.74;98772.78;5031202;28;19917;-75
2022/08/15 06:05:13;;;;;;;;;;;;;;;22.53;55.74;98777.06;5031240;28;19909;-75
2022/08/15 06:07:45;;;;;;;;;;;;;;;22.58;54.84;98776.25;5031553;28;19941;-75
2022/08/15 06:10:25;;;;;;;;;;;;;;;22.63;55.03;98777.03;5030213;28;19909;-75
2022/08/15 06:12:52;;;;;;;;;;;;;;;22.66;54.88;98786.44;5029294;28;19944;-75
2022/08/15 06:15:20;;;;;;;;;;;;;;;22.65;54.74;98787.53;5030053;28;20362;-76
2022/08/15 06:17:50;;;;;;;;;;;;;;;22.71;54.57;98787.22;5031261;28;19924;-75
2022/08/15 06:20:17;;;;;;;;;;;;;;;22.76;54.54;98781.00;5031349;28;20366;-75
2022/08/15 06:22:51;;;;;;;;;;;;;;;22.81;54.04;98784.50;5031297;28;19944;-76
2022/08/15 06:25:22;;;;;;;;;;;;;;;22.86;53.79;98777.50;5031690;28;19909;-76
2022/08/15 06:27:47;;;;;;;;;;;;;;;22.90;53.70;98779.34;5035415;28;19916;-76
2022/08/15 06:30:15;;;;;;;;;;;;;;;22.96;53.41;98790.91;5033967;28;20000;-75
2022/08/15 06:32:43;;;;;;;;;;;;;;;23.03;53.55;98781.44;5032930;28;20416;-75
2022/08/15 06:35:24;;;;;;;;;;;;;;;23.13;53.22;98789.50;5030850;28;19936;-75
2022/08/15 06:38:16;;;;;;;;;;;;;;;23.21;52.67;98790.00;5031586;28;19967;-76
2022/08/15 06:40:48;;;;;;;;;;;;;;;23.33;52.02;98793.16;5031467;28;19963;-76
2022/08/15 06:43:14;;;;;;;;;;;;;;;23.39;51.97;98778.56;5034886;28;19916;-76
2022/08/15 06:45:41;;;;;;;;;;;;;;;23.42;51.90;98770.72;5034646;28;19909;-76
2022/08/15 06:48:12;;;;;;;;;;;;;;;23.49;51.58;98767.69;5034747;28;19909;-76
2022/08/15 06:50:39;;;;;;;;;;;;;;;23.61;51.78;98772.75;5034313;28;19913;-76
2022/08/15 06:53:14;;;;;;;;;;;;;;;23.70;51.57;98769.19;5033353;28;19936;-76
2022/08/15 06:55:58;;;;;;;;;;;;;;;23.76;51.09;98767.25;5034676;28;19909;-76
2022/08/15 06:58:44;;;;;;;;;;;;;;;23.82;50.97;98765.34;5033425;28;20357;-76
2022/08/15 07:01:09;;;;;;;;;;;;;;;23.95;50.57;98773.56;5014353;28;20022;-76
2022/08/15 07:04:01;;;;;;;;;;;;;;;24.03;50.71;98770.25;5024382;28;20401;-76
2022/08/15 07:06:32;;;;;;;;;;;;;;;24.09;50.20;98773.69;5018812;28;19913;-76
2022/08/15 07:09:01;;;;;;;;;;;;;;;24.18;50.35;98766.59;5034338;28;19944;-76
2022/08/15 07:11:37;;;;;;;;;;;;;;;24.27;49.51;98774.91;5034255;28;20370;-76
2022/08/15 07:14:06;;;;;;;;;;;;;;;24.32;49.60;98775.66;5034038;28;19913;-76
2022/08/15 07:16:38;;;;;;;;;;;;;;;24.38;49.74;98771.81;5034420;28;19916;-76
2022/08/15 07:19:04;;;;;;;;;;;;;;;24.45;49.74;98782.25;5045877;28;19920;-76
2022/08/15 07:21:30;;;;;;;;;;;;;;;24.49;49.08;98775.19;5036389;28;20429;-76
2022/08/15 07:24:04;;;;;;;;;;;;;;;24.56;49.16;98772.97;5042335;28;20054;-76
2022/08/15 07:26:30;;;;;;;;;;;;;;;24.65;49.05;98784.75;5053223;28;19916;-76
2022/08/15 07:28:58;;;;;;;;;;;;;;;24.69;49.00;98780.38;5037805;28;19913;-76
2022/08/15 07:31:33;;;;;;;;;;;;;;;24.71;48.97;98780.09;5031509;28;20317;-76
2022/08/15 07:34:03;;;;;;;;;;;;;;;24.78;48.87;98777.03;5062112;28;20004;-76
2022/08/15 07:36:30;;;;;;;;;;;;;;;24.80;47.95;98774.84;5036195;28;20043;-76
2022/08/15 07:38:56;;;;;;;;;;;;;;;24.85;48.39;98780.19;5050285;28;19991;-76
2022/08/15 07:41:33;;;;;;;;;;;;;;;24.96;48.04;98776.25;5030221;28;20008;-76
2022/08/15 07:44:00;;;;;;;;;;;;;;;24.98;47.26;98780.31;5027839;28;20358;-76
2022/08/15 07:46:36;;;;;;;;;;;;;;;24.95;47.58;98777.34;5029865;28;19909;-76
2022/08/15 07:49:07;;;;;;;;;;;;;;;25.03;47.17;98776.72;5033390;28;19909;-76
2022/08/15 07:51:51;;;;;;;;;;;;;;;25.04;47.22;98772.94;5030670;28;19995;-76
2022/08/15 07:54:22;;;;;;;;;;;;;;;25.12;47.15;98777.69;5030903;28;19984;-76
2022/08/15 07:56:53;;;;;;;;;;;;;;;25.25;47.03;98768.84;5067292;28;20011;-76
2022/08/15 07:59:27;;;;;;;;;;;;;;;25.25;46.64;98771.53;5053146;28;19909;-76
2022/08/15 08:02:24;;;;;;;;;;;;;;;25.28;46.22;98783.69;5053053;28;19985;-76
2022/08/15 08:04:50;;;;;;;;;;;;;;;25.40;45.92;98785.94;5052645;28;19915;-76
2022/08/15 08:07:21;;;;;;;;;;;;;;;25.43;45.73;98772.66;5033304;28;20313;-76
2022/08/15 08:09:50;;;;;;;;;;;;;;;25.52;45.73;98784.41;5030107;28;19909;-76
2022/08/15 08:12:15;;;;;;;;;;;;;;;25.64;46.03;98771.22;5028057;28;20382;-76
2022/08/15 08:14:41;;;;;;;;;;;;;;;25.80;46.03;98779.13;5048157;28;19913;-76
2022/08/15 08:17:21;;;;;;;;;;;;;;;25.84;45.58;98778.22;5067325;28;19916;-76
2022/08/15 08:19:55;;;;;;;;;;;;;;;25.96;45.57;98780.47;5052641;28;19996;-76
2022/08/15 08:22:37;;;;;;;;;;;;;;;26.04;45.27;98779.81;5051547;28;20333;-76
2022/08/15 08:25:14;;;;;;;;;;;;;;;26.06;44.79;98772.19;5041617;28;19913;-76
2022/08/15 08:27:58;;;;;;;;;;;;;;;26.19;45.22;98797.66;5031750;28;19948;-76
2022/08/15 08:30:24;;;;;;;;;;;;;;;26.18;44.62;98785.25;5032384;28;19913;-76
2022/08/15 08:32:58;;;;;;;;;;;;;;;26.24;44.68;98765.91;5033183;28;19909;-76
2022/08/15 08:35:42;;;;;;;;;;;;;;;26.34;44.39;98770.34;5032036;28;19920;-76
2022/08/15 08:38:07;;;;;;;;;;;;;;;26.47;44.57;98760.63;5032566;28;19937;-76
2022/08/15 08:43:38;;;;;;;;;;;;;;;26.70;43.76;98759.59;5012697;28;19921;-76
2022/08/15 08:46:20;;;;;;;;;;;;;;;26.77;42.37;98753.81;5027773;28;20408;-77
2022/08/15 08:48:58;;;;;;;;;;;;;;;26.94;42.44;98743.13;5031134;28;19913;-76
2022/08/15 08:51:24;;;;;;;;;;;;;;;27.13;42.67;98743.00;5031365;28;20479;-76
2022/08/15 08:54:12;;;;;;;;;;;;;;;27.30;42.47;98734.22;5031186;28;19969;-76
2022/08/15 08:56:47;;;;;;;;;;;;;;;27.45;42.42;98745.50;5016481;28;19996;-77
2022/08/15 08:59:24;;;;;;;;;;;;;;;27.52;42.03;98748.59;5030564;28;20409;-76
2022/08/15 09:02:13;;;;;;;;;;;;;;;27.61;41.16;98731.63;5029860;28;19952;-76
2022/08/15 09:04:41;;;;;;;;;;;;;;;27.75;41.60;98735.06;5029074;28;19909;-76
2022/08/15 09:07:07;;;;;;;;;;;;;;;27.83;41.38;98726.16;5040542;28;19913;-76
2022/08/15 09:09:38;;;;;;;;;;;;;;;28.00;40.61;98714.59;5031437;28;19917;-76
2022/08/15 09:14:51;;;;;;;;;;;;;;;28.30;40.38;98711.09;5012758;28;20409;-76
2022/08/15 09:17:19;;;;;;;;;;;;;;;28.42;39.83;98715.94;5021320;28;19924;-76
2022/08/15 09:19:46;;;;;;;;;;;;;;;28.63;38.60;98730.50;5032041;28;19913;-76
2022/08/15 09:22:12;;;;;;;;;;;;;;;28.67;38.51;98717.91;5031963;28;19996;-76
2022/08/15 09:24:37;;;;;;;;;;;;;;;28.88;37.89;98717.31;5036383;28;20003;-76
2022/08/15 09:27:05;;;;;;;;;;;;;;;28.96;38.18;98709.16;5044106;28;21399;-76
2022/08/15 09:29:32;;;;;;;;;;;;;;;29.13;37.56;98707.59;5030115;28;19999;-76
2022/08/15 09:32:00;;;;;;;;;;;;;;;29.37;36.94;98705.19;5049361;28;20054;-76
2022/08/15 09:34:29;;;;;;;;;;;;;;;29.57;37.13;98711.88;5028100;28;19920;-76
2022/08/15 09:36:57;;;;;;;;;;;;;;;29.61;37.23;98701.97;5028307;28;20001;-77
2022/08/15 09:39:34;;;;;;;;;;;;;;;29.80;36.23;98701.63;5030472;28;19918;-76
2022/08/15 09:42:13;;;;;;;;;;;;;;;30.03;36.07;98703.81;5033370;28;19917;-76
2022/08/15 09:45:02;;;;;;;;;;;;;;;30.34;35.72;98703.50;5039793;28;19952;-76
2022/08/15 09:47:57;;;;;;;;;;;;;;;30.40;35.65;98692.41;5029340;28;19909;-76
2022/08/15 09:50:41;;;;;;;;;;;;;;;30.55;33.83;98702.75;5021039;28;20006;-76
2022/08/15 09:53:17;;;;;;;;;;;;;;;30.69;34.04;98691.66;5025839;28;19913;-77
2022/08/15 09:55:44;;;;;;;;;;;;;;;30.85;34.63;98696.16;5028310;28;20019;-76
2022/08/15 09:58:20;;;;;;;;;;;;;;;30.86;33.95;98710.59;5030604;28;20431;-76
2022/08/15 10:00:52;;;;;;;;;;;;;;;31.16;34.22;98697.72;5031336;28;20353;-77
2022/08/15 10:03:23;;;;;;;;;;;;;;;31.43;32.55;98715.47;5020381;28;19924;-77
2022/08/15 10:06:05;;;;;;;;;;;;;;;31.52;33.40;98708.00;5022079;28;19913;-77
2022/08/15 10:08:49;;;;;;;;;;;;;;;31.71;32.47;98702.84;5027554;28;19986;-76
2022/08/15 10:11:15;;;;;;;;;;;;;;;31.84;31.86;98706.38;5033800;28;19996;-76
2022/08/15 10:13:40;;;;;;;;;;;;;;;31.78;32.83;98713.19;5028423;28;20345;-76
2022/08/15 10:16:25;;;;;;;;;;;;;;;31.80;32.17;98719.13;5030298;28;19928;-76
2022/08/15 10:18:51;;;;;;;;;;;;;;;31.92;31.69;98709.00;5029344;28;20459;-76
2022/08/15 10:21:30;;;;;;;;;;;;;;;32.03;32.15;98712.13;5030288;28;19917;-77
2022/08/15 10:23:56;;;;;;;;;;;;;;;32.28;32.41;98709.44;5029480;28;19920;-77
2022/08/15 10:26:24;;;;;;;;;;;;;;;32.34;32.36;98703.41;5031205;28;20305;-77
2022/08/15 10:29:01;;;;;;;;;;;;;;;32.48;31.68;98714.78;5030566;28;20302;-77
2022/08/15 10:31:28;;;;;;;;;;;;;;;32.48;32.06;98708.50;5030278;28;19948;-77
2022/08/15 10:33:57;;;;;;;;;;;;;;;32.34;30.68;98705.34;5023142;28;19997;-76
2022/08/15 10:36:33;;;;;;;;;;;;;;;32.28;31.30;98701.25;5028065;28;19917;-76
2022/08/15 10:39:06;;;;;;;;;;;;;;;32.33;31.98;98704.53;5029037;28;19909;-76
2022/08/15 10:41:51;;;;;;;;;;;;;;;32.08;31.49;98709.19;5029671;28;19924;-76
2022/08/15 10:44:20;;;;;;;;;;;;;;;31.93;32.70;98696.16;5025061;28;20015;-76
2022/08/15 10:46:45;;;;;;;;;;;;;;;31.71;32.94;98704.78;5026957;28;19917;-76
2022/08/15 10:49:30;;;;;;;;;;;;;;;31.64;33.58;98708.03;5036627;28;20359;-76
2022/08/15 10:51:55;;;;;;;;;;;;;;;31.66;33.56;98704.94;5035365;28;20406;-76
2022/08/15 10:54:22;;;;;;;;;;;;;;;31.73;32.84;98707.97;5031152;28;19991;-76
2022/08/15 10:56:54;;;;;;;;;;;;;;;31.74;33.49;98710.34;5030326;28;19909;-77
2022/08/15 10:59:22;;;;;;;;;;;;;;;31.59;31.41;98706.31;5028821;28;19912;-76
2022/08/15 11:01:48;;;;;;;;;;;;;;;31.28;33.05;98705.97;5030734;28;20439;-76
2022/08/15 11:04:26;;;;;;;;;;;;;;;31.11;32.92;98698.69;5030829;28;20008;-76
2022/08/15 11:06:52;;;;;;;;;;;;;;;30.91;33.41;98697.56;5030688;28;20421;-76
2022/08/15 11:09:19;;;;;;;;;;;;;;;31.06;33.33;98692.63;5042620;28;19943;-76
2022/08/15 11:11:51;;;;;;;;;;;;;;;31.37;32.21;98698.50;5041427;28;19960;-76
2022/08/15 11:14:28;;;;;;;;;;;;;;;31.47;31.17;98691.84;5033845;28;19958;-76
2022/08/15 11:16:54;;;;;;;;;;;;;;;31.76;31.07;98688.16;5033918;28;19921;-76
2022/08/15 11:19:19;;;;;;;;;;;;;;;32.32;31.45;98680.28;5034170;28;20562;-76
2022/08/15 11:21:49;;;;;;;;;;;;;;;32.86;30.95;98683.56;5033213;28;20279;-75
2022/08/15 11:24:23;;;;;;;;;;;;;;;33.12;30.29;98683.13;5033497;28;19996;-75
2022/08/15 11:26:49;;;;;;;;;;;;;;;33.50;29.73;98674.44;5033071;28;20421;-75
2022/08/15 11:29:15;;;;;;;;;;;;;;;33.81;29.32;98673.69;5032044;28;19951;-75
2022/08/15 11:31:45;;;;;;;;;;;;;;;34.06;28.83;98688.81;5030988;28;19920;-75
2022/08/15 11:34:38;;;;;;;;;;;;;;;34.03;27.77;98681.31;5051929;28;20393;-75
2022/08/15 11:37:23;;;;;;;;;;;;;;;34.36;27.40;98677.44;5029664;28;19917;-75
2022/08/15 11:39:57;;;;;;;;;;;;;;;34.44;26.47;98689.34;5033865;28;19909;-75
2022/08/15 11:42:23;;;;;;;;;;;;;;;34.50;27.54;98677.75;5032414;28;20058;-75
2022/08/15 11:44:54;;;;;;;;;;;;;;;34.71;27.29;98678.22;5036814;28;19990;-75
2022/08/15 11:47:20;;;;;;;;;;;;;;;34.33;27.01;98676.19;5052484;28;19999;-75
2022/08/15 11:49:48;;;;;;;;;;;;;;;34.41;27.67;98685.38;5045282;28;19920;-75
2022/08/15 11:52:20;;;;;;;;;;;;;;;34.42;26.24;98665.84;5040992;28;19999;-75
2022/08/15 11:54:45;;;;;;;;;;;;;;;34.75;27.07;98672.81;5038167;28;20405;-75
2022/08/15 11:57:19;;;;;;;;;;;;;;;34.89;27.62;98675.88;5033697;28;19915;-75
2022/08/15 11:59:57;;;;;;;;;;;;;;;34.83;27.76;98671.84;5033512;28;20393;-75
2022/08/15 12:02:23;;;;;;;;;;;;;;;34.77;26.15;98670.50;5039675;28;20279;-75
2022/08/15 12:04:49;;;;;;;;;;;;;;;34.93;26.87;98667.72;5027889;28;19920;-75
2022/08/15 12:07:19;;;;;;;;;;;;;;;34.92;26.51;98663.38;5033275;28;20317;-75
2022/08/15 12:09:53;;;;;;;;;;;;;;;34.92;27.31;98661.44;5033427;28;19959;-75
2022/08/15 12:12:28;;;;;;;;;;;;;;;35.05;27.37;98662.13;5031814;28;19916;-76
2022/08/15 12:14:56;;;;;;;;;;;;;;;35.33;26.84;98661.91;5034227;28;19913;-76
2022/08/15 12:17:28;;;;;;;;;;;;;;;35.54;25.97;98658.75;5044888;28;19917;-75
2022/08/15 12:19:55;;;;;;;;;;;;;;;35.65;26.75;98660.53;5036202;28;19917;-75
2022/08/15 12:22:34;;;;;;;;;;;;;;;35.81;25.50;98665.16;5032388;28;19913;-77
2022/08/15 12:25:00;;;;;;;;;;;;;;;35.76;26.83;98666.22;5032014;28;20305;-75
2022/08/15 12:27:25;;;;;;;;;;;;;;;35.75;24.55;98666.59;5032957;28;19909;-75
2022/08/15 12:29:51;;;;;;;;;;;;;;;35.66;25.65;98661.31;5033026;28;19913;-75
2022/08/15 12:32:16;;;;;;;;;;;;;;;35.65;25.17;98659.72;5040654;28;19908;-74
2022/08/15 12:34:42;;;;;;;;;;;;;;;35.71;25.78;98655.53;5052115;28;20438;-75
2022/08/15 12:37:13;;;;;;;;;;;;;;;35.82;26.21;98655.75;5033013;28;19913;-75
2022/08/15 12:39:49;;;;;;;;;;;;;;;36.00;26.61;98656.84;5030943;28;19917;-75
2022/08/15 12:42:20;;;;;;;;;;;;;;;36.06;25.85;98655.34;5032563;28;19913;-75
2022/08/15 12:44:47;;;;;;;;;;;;;;;35.98;26.29;98657.19;5031255;28;19916;-75
2022/08/15 12:47:13;;;;;;;;;;;;;;;36.04;25.87;98648.66;5032534;28;19916;-74
2022/08/15 12:49:38;;;;;;;;;;;;;;;36.08;24.71;98647.53;5032360;28;19913;-75
2022/08/15 12:52:03;;;;;;;;;;;;;;;36.07;26.30;98643.22;5032319;28;19916;-74
2022/08/15 12:54:29;;;;;;;;;;;;;;;36.23;26.36;98652.09;5039584;28;20340;-77
2022/08/15 12:56:54;;;;;;;;;;;;;;;36.35;26.92;98651.09;5052183;28;19913;-77
2022/08/15 12:59:19;;;;;;;;;;;;;;;36.47;26.33;98639.13;5052420;28;19923;-75
2022/08/15 13:01:45;;;;;;;;;;;;;;;36.41;24.01;98638.63;5050816;28;19920;-77
2022/08/15 13:04:13;;;;;;;;;;;;;;;36.47;26.25;98642.66;5052010;28;19908;-77
2022/08/15 13:06:42;;;;;;;;;;;;;;;36.36;25.86;98644.44;5050854;28;19912;-77
2022/08/15 13:09:08;;;;;;;;;;;;;;;36.29;24.88;98649.84;5051897;28;19915;-77